createdAt,value
2022-10-13T00:01:13.162Z,6.50
2022-10-13T00:03:41.987Z,6.40
2022-10-13T00:06:10.920Z,7.18
2022-10-13T00:08:39.492Z,7.15
2022-10-13T00:11:20.095Z,6.05
2022-10-13T00:13:48.286Z,5.57
2022-10-13T00:16:18.514Z,6.10
2022-10-13T00:18:49.373Z,6.30
2022-10-13T00:23:45.515Z,5.38
2022-10-13T00:26:15.223Z,5.90
2022-10-13T00:28:42.149Z,5.93
2022-10-13T00:31:35.074Z,5.93
2022-10-13T00:34:02.570Z,5.70
2022-10-13T00:36:30.147Z,6.30
2022-10-13T00:38:58.402Z,7.38
2022-10-13T00:41:25.655Z,5.80
2022-10-13T00:44:05.506Z,6.90
2022-10-13T00:46:37.250Z,5.38
2022-10-13T00:49:12.060Z,5.75
2022-10-13T00:51:45.754Z,5.63
2022-10-13T00:54:20.166Z,5.72
2022-10-13T00:56:49.591Z,6.60
2022-10-13T00:59:23.497Z,5.88
2022-10-13T01:01:51.904Z,6.88
2022-10-13T01:04:25.400Z,6.53
2022-10-13T01:06:55.855Z,6.13
2022-10-13T01:09:22.701Z,5.78
2022-10-13T01:12:06.440Z,5.63
2022-10-13T01:14:52.992Z,6.30
2022-10-13T01:17:44.507Z,6.40
2022-10-13T01:20:40.686Z,6.10
2022-10-13T01:23:55.666Z,4.75
2022-10-13T01:27:02.046Z,8.27
2022-10-13T01:30:02.106Z,5.70
2022-10-13T01:33:10.677Z,5.55
2022-10-13T01:36:01.034Z,4.50
2022-10-13T01:38:47.985Z,5.50
2022-10-13T01:41:38.870Z,5.40
2022-10-13T01:44:32.074Z,4.30
2022-10-13T01:47:02.410Z,4.97
2022-10-13T01:49:34.834Z,6.47
2022-10-13T01:52:10.151Z,5.75
2022-10-13T01:54:36.954Z,3.85
2022-10-13T01:57:03.868Z,4.53
2022-10-13T01:59:36.042Z,5.30
2022-10-13T02:02:31.988Z,5.40
2022-10-13T02:05:40.641Z,4.90
2022-10-13T02:08:36.880Z,5.35
2022-10-13T02:11:24.406Z,5.78
2022-10-13T02:13:58.764Z,5.05
2022-10-13T02:16:31.186Z,5.13
2022-10-13T02:18:58.841Z,6.70
2022-10-13T02:21:26.443Z,6.55
2022-10-13T02:23:53.285Z,5.35
2022-10-13T02:26:20.942Z,5.57
2022-10-13T02:28:47.864Z,6.07
2022-10-13T02:31:14.737Z,4.50
2022-10-13T02:33:41.649Z,4.70
2022-10-13T02:36:08.541Z,5.47
2022-10-13T02:38:35.307Z,4.43
2022-10-13T02:41:04.982Z,5.90
2022-10-13T02:43:33.803Z,5.35
2022-10-13T02:46:00.562Z,4.78
2022-10-13T02:48:27.364Z,5.82
2022-10-13T02:50:54.228Z,5.15
2022-10-13T02:53:21.061Z,5.00
2022-10-13T02:55:48.464Z,5.70
2022-10-13T02:58:15.634Z,4.75
2022-10-13T03:00:42.460Z,5.50
2022-10-13T03:03:11.301Z,5.18
2022-10-13T03:05:38.202Z,4.95
2022-10-13T03:08:05.645Z,4.88
2022-10-13T03:10:32.642Z,5.30
2022-10-13T03:12:59.526Z,4.88
2022-10-13T03:15:26.388Z,4.75
2022-10-13T03:17:53.143Z,5.63
2022-10-13T03:20:19.969Z,4.93
2022-10-13T03:22:49.722Z,4.88
2022-10-13T03:25:17.293Z,4.80
2022-10-13T03:27:44.062Z,5.20
2022-10-13T03:30:11.535Z,5.80
2022-10-13T03:32:38.380Z,4.82
2022-10-13T03:35:06.355Z,5.28
2022-10-13T03:37:33.258Z,7.93
2022-10-13T03:40:00.036Z,12.82
2022-10-13T03:42:26.798Z,4.30
2022-10-13T03:44:56.306Z,4.97
2022-10-13T03:47:23.532Z,5.35
2022-10-13T03:49:50.404Z,6.07
2022-10-13T03:52:17.494Z,4.72
2022-10-13T03:54:44.541Z,5.03
2022-10-13T03:57:11.298Z,5.65
2022-10-13T03:59:41.004Z,3.97
2022-10-13T04:02:08.832Z,4.55
2022-10-13T04:04:38.367Z,4.28
2022-10-13T04:07:07.056Z,4.45
2022-10-13T04:09:33.848Z,6.32
2022-10-13T04:12:00.736Z,5.10
2022-10-13T04:14:27.518Z,4.47
2022-10-13T04:16:54.297Z,3.92
2022-10-13T04:19:21.075Z,4.63
2022-10-13T04:21:47.953Z,4.63
2022-10-13T04:24:15.155Z,4.25
2022-10-13T04:26:42.218Z,4.45
2022-10-13T04:29:11.756Z,4.65
2022-10-13T04:31:42.636Z,4.53
2022-10-13T04:36:37.045Z,4.25
2022-10-13T04:39:04.827Z,4.70
2022-10-13T04:41:31.593Z,4.88
2022-10-13T04:43:59.148Z,4.07
2022-10-13T04:46:27.484Z,4.63
2022-10-13T04:48:55.630Z,6.13
2022-10-13T04:51:25.706Z,4.45
2022-10-13T04:54:01.633Z,5.17
2022-10-13T04:56:29.146Z,4.97
2022-10-13T04:58:56.023Z,3.42
2022-10-13T05:01:25.473Z,6.72
2022-10-13T05:03:59.984Z,5.70
2022-10-13T05:06:31.174Z,5.32
2022-10-13T05:08:58.213Z,5.28
2022-10-13T05:11:29.198Z,5.13
2022-10-13T05:13:57.362Z,5.18
2022-10-13T05:16:25.378Z,4.80
2022-10-13T05:18:54.730Z,8.60
2022-10-13T05:21:28.612Z,4.20
2022-10-13T05:23:57.607Z,5.15
2022-10-13T05:26:29.065Z,5.05
2022-10-13T05:29:00.909Z,4.60
2022-10-13T05:31:30.761Z,4.88
2022-10-13T05:33:58.054Z,5.35
2022-10-13T05:36:34.941Z,5.15
2022-10-13T05:39:07.399Z,5.68
2022-10-13T05:41:34.394Z,6.00
2022-10-13T05:44:07.177Z,6.22
2022-10-13T05:46:34.197Z,5.35
2022-10-13T05:49:01.000Z,7.10
2022-10-13T05:51:36.959Z,6.43
2022-10-13T05:54:24.646Z,6.53
2022-10-13T05:56:58.928Z,14.30
2022-10-13T05:59:31.463Z,7.88
2022-10-13T06:01:58.723Z,6.55
2022-10-13T06:04:49.027Z,7.95
2022-10-13T06:07:16.536Z,8.20
2022-10-13T06:09:43.991Z,6.03
2022-10-13T06:12:11.291Z,9.93
2022-10-13T06:14:38.163Z,6.97
2022-10-13T06:17:05.219Z,7.80
2022-10-13T06:19:32.008Z,9.73
2022-10-13T06:22:03.263Z,11.45
2022-10-13T06:24:30.699Z,7.97
2022-10-13T06:26:57.694Z,5.63
2022-10-13T06:29:24.492Z,6.53
2022-10-13T06:31:51.342Z,8.45
2022-10-13T06:34:18.144Z,6.88
2022-10-13T06:36:45.080Z,6.75
2022-10-13T06:39:12.299Z,6.38
2022-10-13T06:41:39.087Z,10.10
2022-10-13T06:44:06.197Z,10.55
2022-10-13T06:46:33.222Z,7.72
2022-10-13T06:49:00.082Z,8.57
2022-10-13T06:51:26.974Z,7.13
2022-10-13T06:53:57.051Z,5.80
2022-10-13T06:56:24.107Z,7.45
2022-10-13T06:58:50.931Z,8.23
2022-10-13T07:01:17.714Z,8.55
2022-10-13T07:03:44.558Z,9.02
2022-10-13T07:06:11.365Z,6.80
2022-10-13T07:08:38.162Z,8.30
2022-10-13T07:11:16.227Z,8.20
2022-10-13T07:13:46.516Z,6.50
2022-10-13T07:16:16.849Z,6.68
2022-10-13T07:18:43.789Z,6.95
2022-10-13T07:21:10.616Z,6.97
2022-10-13T07:23:37.372Z,10.45
2022-10-13T07:26:12.784Z,9.93
2022-10-13T07:28:41.297Z,7.22
2022-10-13T07:31:16.583Z,6.47
2022-10-13T07:33:48.081Z,6.30
2022-10-13T07:36:15.281Z,8.27
2022-10-13T07:38:42.081Z,9.40
2022-10-13T07:41:11.561Z,11.45
2022-10-13T07:43:38.722Z,5.75
2022-10-13T07:46:07.644Z,7.20
2022-10-13T07:48:35.514Z,7.03
2022-10-13T07:51:12.890Z,9.38
2022-10-13T07:53:42.382Z,8.02
2022-10-13T07:56:12.536Z,21.15
2022-10-13T07:58:44.654Z,7.95
2022-10-13T08:01:12.899Z,7.80
2022-10-13T08:03:44.131Z,6.60
2022-10-13T08:06:14.408Z,7.20
2022-10-13T08:08:41.413Z,7.03
2022-10-13T08:11:16.163Z,7.43
2022-10-13T08:13:51.283Z,7.35
2022-10-13T08:16:19.013Z,8.20
2022-10-13T08:18:46.361Z,9.02
2022-10-13T08:21:57.490Z,9.27
2022-10-13T08:24:06.434Z,16.73
2022-10-13T08:26:33.586Z,11.93
2022-10-13T08:29:20.656Z,17.02
2022-10-13T08:31:47.323Z,11.63
2022-10-13T08:34:14.198Z,11.48
2022-10-13T08:36:41.089Z,12.52
2022-10-13T08:39:08.135Z,11.80
2022-10-13T08:41:44.003Z,8.90
2022-10-13T08:47:46.848Z,11.85
2022-10-13T08:50:23.051Z,13.18
2022-10-13T08:53:25.180Z,11.38
2022-10-13T08:56:03.294Z,10.82
2022-10-13T08:58:34.477Z,9.00
2022-10-13T09:01:19.046Z,9.30
2022-10-13T09:03:51.953Z,9.35
2022-10-13T09:06:31.658Z,10.48
2022-10-13T09:09:05.565Z,14.35
2022-10-13T09:11:41.274Z,11.45
2022-10-13T09:14:22.921Z,9.90
2022-10-13T09:16:51.329Z,10.13
2022-10-13T09:19:40.809Z,11.25
2022-10-13T09:22:30.376Z,15.93
2022-10-13T09:25:08.955Z,9.70
2022-10-13T09:27:51.918Z,9.52
2022-10-13T09:30:41.433Z,9.77
2022-10-13T09:33:13.866Z,10.30
2022-10-13T09:35:49.574Z,9.65
2022-10-13T09:38:20.285Z,10.60
2022-10-13T09:41:06.427Z,6.70
2022-10-13T09:43:45.866Z,8.30
2022-10-13T09:46:23.211Z,6.68
2022-10-13T09:48:58.864Z,6.13
2022-10-13T09:51:45.042Z,7.90
2022-10-13T09:54:48.976Z,8.32
2022-10-13T09:57:48.177Z,5.38
2022-10-13T10:00:31.694Z,5.85
2022-10-13T10:03:23.430Z,7.50
2022-10-13T10:05:56.282Z,6.63
2022-10-13T10:09:04.803Z,6.40
2022-10-13T10:11:42.304Z,7.78
2022-10-13T10:14:28.006Z,5.50
2022-10-13T10:17:17.154Z,7.15
2022-10-13T10:20:18.035Z,10.70
2022-10-13T10:23:01.693Z,6.65
2022-10-13T10:25:39.201Z,7.18
2022-10-13T10:29:09.928Z,5.65
2022-10-13T10:31:48.683Z,4.68
2022-10-13T10:34:40.032Z,8.18
2022-10-13T10:38:11.419Z,5.88
2022-10-13T10:41:25.670Z,8.98
2022-10-13T10:44:04.296Z,6.20
2022-10-13T10:46:39.186Z,4.55
2022-10-13T10:49:27.225Z,5.80
2022-10-13T10:51:54.807Z,4.35
2022-10-13T10:54:34.660Z,4.78
2022-10-13T10:57:22.923Z,4.15
2022-10-13T11:00:12.433Z,4.30
2022-10-13T11:03:02.559Z,3.72
2022-10-13T11:05:57.203Z,7.33
2022-10-13T11:08:49.372Z,5.38
2022-10-13T11:11:28.656Z,4.13
2022-10-13T11:14:02.964Z,5.53
2022-10-13T11:16:41.714Z,4.03
2022-10-13T11:19:08.712Z,4.18
2022-10-13T11:21:58.386Z,3.83
2022-10-13T11:24:38.776Z,4.50
2022-10-13T11:27:08.381Z,4.07
2022-10-13T11:30:02.467Z,2.92
2022-10-13T11:32:34.971Z,3.58
2022-10-13T11:35:20.995Z,3.17
2022-10-13T11:38:14.007Z,4.20
2022-10-13T11:41:28.097Z,3.53
2022-10-13T11:44:13.731Z,3.53
2022-10-13T11:47:34.943Z,4.03
2022-10-13T11:50:28.141Z,3.83
2022-10-13T11:53:13.679Z,4.93
2022-10-13T11:56:19.783Z,3.38
2022-10-13T11:58:46.664Z,3.47
2022-10-13T12:01:16.400Z,5.40
2022-10-13T12:03:46.622Z,3.97
2022-10-13T12:06:33.225Z,4.38
2022-10-13T12:09:16.752Z,3.60
2022-10-13T12:11:44.803Z,4.25
2022-10-13T12:14:30.092Z,3.85
2022-10-13T12:16:59.364Z,3.20
2022-10-13T12:19:30.558Z,4.03
2022-10-13T12:22:01.799Z,3.10
2022-10-13T12:24:30.888Z,4.03
2022-10-13T12:26:58.981Z,3.67
2022-10-13T12:29:34.874Z,3.67
2022-10-13T12:32:05.905Z,3.92
2022-10-13T12:34:35.048Z,2.78
2022-10-13T12:37:31.042Z,6.22
2022-10-13T12:40:00.299Z,5.10
2022-10-13T12:42:34.686Z,2.75
2022-10-13T12:45:02.811Z,3.70
2022-10-13T12:47:50.035Z,6.32
2022-10-13T12:50:28.895Z,2.55
2022-10-13T12:53:08.027Z,2.92
2022-10-13T12:55:45.327Z,4.25
2022-10-13T12:58:36.574Z,2.65
2022-10-13T13:01:12.401Z,5.28
2022-10-13T13:03:42.722Z,3.65
2022-10-13T13:06:23.301Z,3.05
2022-10-13T13:09:08.502Z,3.35
2022-10-13T13:11:38.638Z,2.78
2022-10-13T13:14:41.830Z,3.22
2022-10-13T13:17:32.986Z,2.38
2022-10-13T13:20:27.073Z,4.93
2022-10-13T13:22:55.074Z,5.03
2022-10-13T13:25:23.518Z,3.40
2022-10-13T13:27:51.423Z,3.05
2022-10-13T13:30:22.070Z,2.75
2022-10-13T13:32:49.699Z,3.55
2022-10-13T13:35:16.962Z,4.07
2022-10-13T13:37:49.724Z,3.03
2022-10-13T13:40:24.488Z,3.40
2022-10-13T13:42:51.944Z,3.35
2022-10-13T13:45:22.829Z,3.50
2022-10-13T13:47:49.845Z,3.35
2022-10-13T13:50:26.843Z,5.13
2022-10-13T13:52:54.146Z,2.78
2022-10-13T13:55:21.010Z,6.72
2022-10-13T13:57:47.884Z,2.97
2022-10-13T14:00:16.556Z,4.32
2022-10-13T14:02:45.090Z,3.55
2022-10-13T14:05:12.501Z,3.58
2022-10-13T14:07:40.848Z,4.15
2022-10-13T14:10:10.371Z,8.45
2022-10-13T14:12:37.881Z,3.33
2022-10-13T14:15:06.004Z,4.10
2022-10-13T14:17:32.820Z,3.30
2022-10-13T14:19:59.592Z,4.10
2022-10-13T14:22:26.863Z,3.88
2022-10-13T14:24:53.892Z,4.07
2022-10-13T14:27:21.072Z,3.42
2022-10-13T14:29:47.841Z,3.10
2022-10-13T14:32:14.648Z,3.22
2022-10-13T14:34:41.432Z,3.80
2022-10-13T14:37:08.339Z,2.95
2022-10-13T14:39:35.106Z,4.00
2022-10-13T14:42:02.013Z,5.30
2022-10-13T14:44:28.820Z,3.35
2022-10-13T14:46:55.970Z,5.63
2022-10-13T14:49:22.973Z,5.57
2022-10-13T14:51:49.802Z,4.63
2022-10-13T14:54:17.478Z,3.33
2022-10-13T14:56:47.155Z,3.58
2022-10-13T14:59:14.088Z,5.50
2022-10-13T15:01:41.554Z,3.35
2022-10-13T15:04:09.180Z,3.05
2022-10-13T15:06:39.164Z,3.92
2022-10-13T15:09:10.527Z,3.83
2022-10-13T15:11:37.728Z,3.00
2022-10-13T15:14:04.748Z,3.80
2022-10-13T15:16:36.902Z,2.72
2022-10-13T15:19:04.277Z,10.02
2022-10-13T15:21:31.209Z,5.45
2022-10-13T15:23:58.827Z,3.60
2022-10-13T15:26:25.769Z,3.35
2022-10-13T15:28:54.016Z,3.38
2022-10-13T15:31:24.789Z,3.20
2022-10-13T15:36:21.985Z,3.58
2022-10-13T15:38:48.913Z,3.08
2022-10-13T15:41:16.217Z,3.67
2022-10-13T15:43:43.510Z,3.30
2022-10-13T15:46:21.484Z,4.97
2022-10-13T15:48:50.896Z,3.60
2022-10-13T15:51:21.058Z,2.70
2022-10-13T15:53:48.683Z,3.45
2022-10-13T15:56:16.526Z,2.90
2022-10-13T15:58:43.724Z,3.45
2022-10-13T16:01:12.802Z,4.72
2022-10-13T16:03:40.578Z,3.53
2022-10-13T16:06:11.544Z,2.75
2022-10-13T16:08:40.840Z,4.43
2022-10-13T16:11:09.506Z,6.90
2022-10-13T16:13:36.455Z,4.32
2022-10-13T16:16:03.351Z,3.38
2022-10-13T16:18:36.367Z,4.50
2022-10-13T16:21:18.862Z,3.67
2022-10-13T16:23:47.626Z,3.78
2022-10-13T16:26:17.235Z,4.15
2022-10-13T16:28:45.759Z,5.38
2022-10-13T16:31:16.143Z,3.60
2022-10-13T16:33:45.050Z,3.85
2022-10-13T16:36:18.649Z,10.43
2022-10-13T16:38:47.651Z,5.40
2022-10-13T16:41:18.342Z,4.50
2022-10-13T16:43:46.697Z,4.70
2022-10-13T16:46:16.859Z,5.53
2022-10-13T16:48:45.616Z,4.03
2022-10-13T16:51:18.659Z,3.50
2022-10-13T16:53:59.842Z,4.30
2022-10-13T16:56:30.497Z,6.03
2022-10-13T16:59:07.443Z,5.72
2022-10-13T17:01:36.360Z,3.60
2022-10-13T17:04:04.844Z,10.05
2022-10-13T17:06:32.575Z,8.38
2022-10-13T17:09:03.197Z,4.95
2022-10-13T17:11:33.567Z,4.85
2022-10-13T17:14:01.813Z,6.57
2022-10-13T17:16:28.808Z,6.82
2022-10-13T17:18:56.164Z,10.88
2022-10-13T17:21:23.553Z,9.05
2022-10-13T17:23:50.875Z,9.60
2022-10-13T17:26:20.804Z,16.20
2022-10-13T17:28:47.733Z,10.00
2022-10-13T17:31:19.392Z,5.18
2022-10-13T17:33:47.744Z,4.78
2022-10-13T17:36:25.353Z,4.65
2022-10-13T17:38:55.585Z,6.13
2022-10-13T17:41:24.243Z,8.23
2022-10-13T17:43:52.217Z,7.20
2022-10-13T17:46:38.389Z,7.55
2022-10-13T17:49:09.716Z,4.75
2022-10-13T17:51:36.546Z,4.60
2022-10-13T17:54:04.196Z,5.18
2022-10-13T17:56:31.702Z,4.72
2022-10-13T17:59:00.309Z,5.70
2022-10-13T18:01:31.712Z,5.32
2022-10-13T18:04:05.013Z,4.85
2022-10-13T18:06:39.814Z,4.95
2022-10-13T18:09:13.735Z,7.25
2022-10-13T18:11:48.518Z,5.53
2022-10-13T18:14:17.153Z,4.50
2022-10-13T18:16:44.090Z,6.07
2022-10-13T18:19:10.905Z,5.80
2022-10-13T18:21:37.713Z,5.10
2022-10-13T18:24:05.258Z,5.60
2022-10-13T18:26:36.514Z,5.28
2022-10-13T18:29:06.866Z,8.10
2022-10-13T18:31:36.630Z,9.57
2022-10-13T18:34:07.073Z,5.63
2022-10-13T18:36:43.511Z,6.75
2022-10-13T18:39:18.113Z,6.03
2022-10-13T18:41:46.075Z,5.13
2022-10-13T18:44:13.553Z,6.50
2022-10-13T18:46:40.993Z,6.13
2022-10-13T18:49:12.510Z,6.65
2022-10-13T18:51:40.325Z,10.07
2022-10-13T18:54:08.319Z,5.05
2022-10-13T18:56:38.800Z,5.70
2022-10-13T18:59:07.669Z,4.75
2022-10-13T19:01:37.906Z,7.63
2022-10-13T19:04:06.000Z,7.18
2022-10-13T19:06:33.637Z,5.45
2022-10-13T19:09:07.199Z,8.00
2022-10-13T19:11:35.063Z,5.90
2022-10-13T19:14:04.063Z,5.57
2022-10-13T19:16:34.916Z,7.22
2022-10-13T19:21:28.486Z,8.70
2022-10-13T19:23:59.717Z,13.18
2022-10-13T19:26:32.661Z,14.43
2022-10-13T19:29:19.589Z,13.65
2022-10-13T19:31:46.362Z,13.20
2022-10-13T19:34:13.829Z,11.65
2022-10-13T19:36:45.067Z,12.00
2022-10-13T19:39:17.619Z,11.13
2022-10-13T19:41:47.663Z,9.10
2022-10-13T19:44:16.377Z,10.30
2022-10-13T19:46:45.172Z,10.60
2022-10-13T19:49:15.476Z,11.18
2022-10-13T19:51:42.313Z,12.10
2022-10-13T19:54:11.137Z,7.80
2022-10-13T19:56:38.424Z,9.70
2022-10-13T19:59:05.910Z,8.73
2022-10-13T20:01:39.892Z,10.38
2022-10-13T20:04:10.407Z,9.18
2022-10-13T20:06:37.510Z,9.07
2022-10-13T20:09:05.383Z,8.60
2022-10-13T20:11:32.360Z,8.45
2022-10-13T20:13:59.255Z,7.75
2022-10-13T20:16:26.206Z,7.35
2022-10-13T20:18:59.701Z,8.25
2022-10-13T20:21:28.205Z,8.95
2022-10-13T20:23:55.797Z,9.20
2022-10-13T20:26:23.516Z,10.20
2022-10-13T20:28:52.337Z,9.55
2022-10-13T20:31:21.641Z,6.00
2022-10-13T20:33:49.696Z,5.90
2022-10-13T20:36:18.157Z,9.88
2022-10-13T20:38:45.174Z,6.63
2022-10-13T20:41:28.724Z,6.38
2022-10-13T20:44:00.526Z,6.35
2022-10-13T20:46:27.851Z,5.00
2022-10-13T20:49:13.422Z,5.95
2022-10-13T20:51:42.842Z,5.53
2022-10-13T20:54:11.751Z,5.15
2022-10-13T20:56:39.087Z,5.95
2022-10-13T20:59:11.272Z,5.10
2022-10-13T21:01:38.750Z,5.07
2022-10-13T21:04:06.391Z,4.47
2022-10-13T21:06:34.386Z,4.07
2022-10-13T21:09:01.519Z,4.78
2022-10-13T21:11:28.437Z,5.55
2022-10-13T21:13:55.493Z,5.47
2022-10-13T21:16:27.303Z,5.38
2022-10-13T21:18:56.264Z,4.95
2022-10-13T21:21:30.480Z,5.72
2022-10-13T21:24:01.727Z,5.53
2022-10-13T21:26:30.781Z,5.00
2022-10-13T21:28:58.417Z,7.32
2022-10-13T21:31:26.190Z,5.13
2022-10-13T21:33:54.167Z,4.32
2022-10-13T21:36:24.015Z,4.72
2022-10-13T21:38:54.705Z,4.15
2022-10-13T21:41:22.649Z,5.00
2022-10-13T21:43:51.810Z,5.38
2022-10-13T21:46:26.590Z,8.95
2022-10-13T21:48:56.544Z,4.28
2022-10-13T21:51:39.358Z,7.57
2022-10-13T21:54:13.398Z,4.55
2022-10-13T21:56:41.237Z,5.40
2022-10-13T21:59:10.715Z,4.85
2022-10-13T22:01:37.701Z,8.52
2022-10-13T22:04:06.291Z,5.40
2022-10-13T22:06:33.989Z,5.82
2022-10-13T22:09:05.413Z,7.97
2022-10-13T22:11:35.935Z,5.43
2022-10-13T22:14:03.878Z,5.50
2022-10-13T22:16:35.677Z,6.25
2022-10-13T22:19:03.156Z,5.72
2022-10-13T22:21:35.331Z,4.57
2022-10-13T22:24:06.246Z,14.00
2022-10-13T22:29:05.794Z,4.27
2022-10-13T22:31:33.335Z,5.72
2022-10-13T22:34:01.898Z,5.43
2022-10-13T22:36:30.966Z,7.22
2022-10-13T22:39:02.885Z,4.78
2022-10-13T22:41:31.187Z,3.90
2022-10-13T22:44:00.360Z,8.63
2022-10-13T22:46:32.203Z,3.35
2022-10-13T22:48:59.314Z,3.15
2022-10-13T22:51:28.513Z,3.95
2022-10-13T22:53:56.829Z,3.88
2022-10-13T22:56:30.247Z,4.60
2022-10-13T22:59:04.430Z,4.32
2022-10-13T23:01:31.663Z,3.00
2022-10-13T23:03:59.378Z,4.95
2022-10-13T23:06:32.876Z,5.10
2022-10-13T23:09:05.886Z,4.10
2022-10-13T23:11:34.322Z,3.67
2022-10-13T23:14:02.461Z,3.65
2022-10-13T23:16:30.463Z,3.40
2022-10-13T23:18:57.446Z,3.50
2022-10-13T23:21:28.793Z,3.33
2022-10-13T23:24:02.284Z,3.63
2022-10-13T23:26:32.896Z,2.95
2022-10-13T23:29:00.663Z,2.80
2022-10-13T23:31:28.650Z,3.15
2022-10-13T23:33:55.956Z,3.28
2022-10-13T23:36:29.894Z,5.20
2022-10-13T23:39:06.454Z,3.10
2022-10-13T23:41:33.942Z,4.13
2022-10-13T23:44:00.786Z,3.20
2022-10-13T23:46:27.754Z,3.15
2022-10-13T23:48:54.580Z,2.90
2022-10-13T23:51:24.966Z,2.80
2022-10-13T23:53:53.117Z,6.13
2022-10-13T23:56:20.872Z,2.97
2022-10-13T23:58:48.243Z,2.42
